TimeHST,TemperatureF,Dew PointF,Humidity,Sea Level PressureIn,VisibilityMPH,Wind Direction,Wind SpeedMPH,Gust SpeedMPH,PrecipitationIn,Events,Conditions,WindDirDegrees,DateUTC
12:54 AM,77.0,71.1,82,30.05,10.0,NE,15.0,21.9,N/A,,Clear,50,2013-08-12 10:54:00
1:54 AM,77.0,71.1,82,30.04,10.0,NE,17.3,25.3,N/A,,Clear,50,2013-08-12 11:54:00
2:54 AM,77.0,71.1,82,30.04,10.0,NE,17.3,23.0,N/A,,Clear,40,2013-08-12 12:54:00
3:54 AM,77.0,71.1,82,30.03,10.0,NE,16.1,-,N/A,,Clear,40,2013-08-12 13:54:00
5:54 AM,77.0,71.1,82,30.05,10.0,NE,17.3,23.0,N/A,,Partly Cloudy,40,2013-08-12 15:54:00
6:54 AM,78.1,70.0,76,30.07,10.0,NE,13.8,-,N/A,,Partly Cloudy,50,2013-08-12 16:54:00
7:54 AM,80.1,71.1,74,30.09,10.0,NE,13.8,-,N/A,,Scattered Clouds,40,2013-08-12 17:54:00
8:54 AM,82.9,69.1,63,30.09,10.0,NE,17.3,-,N/A,,Partly Cloudy,40,2013-08-12 18:54:00
9:54 AM,84.0,71.1,65,30.09,10.0,NE,23.0,27.6,N/A,,Partly Cloudy,40,2013-08-12 19:54:00
10:54 AM,84.9,71.1,63,30.09,10.0,NE,23.0,29.9,N/A,,Scattered Clouds,40,2013-08-12 20:54:00
11:54 AM,86.0,70.0,59,30.07,10.0,NE,25.3,31.1,N/A,,Scattered Clouds,40,2013-08-12 21:54:00
12:54 PM,86.0,71.1,61,30.05,10.0,NE,26.5,32.2,N/A,,Scattered Clouds,40,2013-08-12 22:54:00
1:54 PM,84.9,70.0,61,30.04,10.0,NE,25.3,31.1,N/A,,Scattered Clouds,40,2013-08-12 23:54:00
2:54 PM,87.1,71.1,59,30.03,10.0,NE,23.0,29.9,N/A,,Partly Cloudy,40,2013-08-13 00:54:00
3:54 PM,84.0,70.0,63,30.03,10.0,NE,25.3,-,N/A,,Partly Cloudy,40,2013-08-13 01:54:00
4:54 PM,82.9,69.1,63,30.02,10.0,NE,26.5,32.2,N/A,,Partly Cloudy,40,2013-08-13 02:54:00
5:54 PM,81.0,69.1,67,30.03,10.0,NE,24.2,31.1,N/A,,Partly Cloudy,40,2013-08-13 03:54:00
7:54 PM,78.1,68.0,71,30.07,10.0,NE,13.8,-,N/A,,Clear,40,2013-08-13 05:54:00
8:54 PM,78.1,69.1,74,30.09,10.0,NE,13.8,-,N/A,,Clear,40,2013-08-13 06:54:00
9:54 PM,78.1,69.1,74,30.09,10.0,NE,11.5,-,N/A,,Partly Cloudy,40,2013-08-13 07:54:00
10:54 PM,77.0,69.1,76,30.09,10.0,NNE,12.7,-,N/A,,Clear,30,2013-08-13 08:54:00
11:54 PM,77.0,69.1,76,30.08,10.0,NE,11.5,-,N/A,,Scattered Clouds,40,2013-08-13 09:54:00